sensor_id;sensor_type;location;lat;lon;timestamp;temperature;humidity
12977;DHT22;6553;48.412;9.514;2023-03-08T00:01:10;19.00;44.60
12977;DHT22;6553;48.412;9.514;2023-03-08T00:03:38;19.00;44.60
12977;DHT22;6553;48.412;9.514;2023-03-08T00:06:05;19.00;44.60
12977;DHT22;6553;48.412;9.514;2023-03-08T00:08:32;19.00;44.60
12977;DHT22;6553;48.412;9.514;2023-03-08T00:10:58;19.00;44.60
12977;DHT22;6553;48.412;9.514;2023-03-08T00:13:24;19.00;44.50
12977;DHT22;6553;48.412;9.514;2023-03-08T00:15:50;19.00;44.60
12977;DHT22;6553;48.412;9.514;2023-03-08T00:18:17;19.00;44.50
12977;DHT22;6553;48.412;9.514;2023-03-08T00:20:43;19.00;45.10
12977;DHT22;6553;48.412;9.514;2023-03-08T00:23:09;19.00;44.50
12977;DHT22;6553;48.412;9.514;2023-03-08T00:25:34;19.00;44.60
12977;DHT22;6553;48.412;9.514;2023-03-08T00:28:00;19.00;44.50
12977;DHT22;6553;48.412;9.514;2023-03-08T00:30:28;19.00;44.60
12977;DHT22;6553;48.412;9.514;2023-03-08T00:32:54;19.00;44.60
12977;DHT22;6553;48.412;9.514;2023-03-08T00:35:20;19.00;44.50
12977;DHT22;6553;48.412;9.514;2023-03-08T00:37:46;19.00;44.60
12977;DHT22;6553;48.412;9.514;2023-03-08T00:40:15;19.00;44.60
12977;DHT22;6553;48.412;9.514;2023-03-08T00:42:41;19.00;44.60
12977;DHT22;6553;48.412;9.514;2023-03-08T00:45:07;19.00;44.60
12977;DHT22;6553;48.412;9.514;2023-03-08T00:47:33;19.00;44.60
12977;DHT22;6553;48.412;9.514;2023-03-08T00:49:59;19.00;44.60
12977;DHT22;6553;48.412;9.514;2023-03-08T00:52:25;19.00;44.60
12977;DHT22;6553;48.412;9.514;2023-03-08T00:54:51;19.00;44.60
12977;DHT22;6553;48.412;9.514;2023-03-08T00:57:17;19.00;44.60
12977;DHT22;6553;48.412;9.514;2023-03-08T00:59:43;19.00;44.60
12977;DHT22;6553;48.412;9.514;2023-03-08T01:02:10;19.00;44.60
12977;DHT22;6553;48.412;9.514;2023-03-08T01:04:38;19.00;44.60
12977;DHT22;6553;48.412;9.514;2023-03-08T01:07:04;19.00;44.60
12977;DHT22;6553;48.412;9.514;2023-03-08T01:09:30;19.10;44.70
12977;DHT22;6553;48.412;9.514;2023-03-08T01:11:56;19.00;44.60
12977;DHT22;6553;48.412;9.514;2023-03-08T01:14:22;19.00;44.50
12977;DHT22;6553;48.412;9.514;2023-03-08T01:16:49;19.00;44.50
12977;DHT22;6553;48.412;9.514;2023-03-08T01:19:14;19.00;44.60
12977;DHT22;6553;48.412;9.514;2023-03-08T01:21:41;19.00;44.60
12977;DHT22;6553;48.412;9.514;2023-03-08T01:24:06;19.00;44.60
12977;DHT22;6553;48.412;9.514;2023-03-08T01:26:32;19.00;44.60
12977;DHT22;6553;48.412;9.514;2023-03-08T01:28:59;19.00;44.60
12977;DHT22;6553;48.412;9.514;2023-03-08T01:31:28;19.00;44.60
12977;DHT22;6553;48.412;9.514;2023-03-08T01:33:56;19.00;44.60
12977;DHT22;6553;48.412;9.514;2023-03-08T01:36:25;19.00;44.60
12977;DHT22;6553;48.412;9.514;2023-03-08T01:38:52;19.00;44.60
12977;DHT22;6553;48.412;9.514;2023-03-08T01:41:22;19.10;44.70
12977;DHT22;6553;48.412;9.514;2023-03-08T01:43:50;19.00;44.60
12977;DHT22;6553;48.412;9.514;2023-03-08T01:46:21;19.00;44.60
12977;DHT22;6553;48.412;9.514;2023-03-08T01:52:10;19.00;44.60
12977;DHT22;6553;48.412;9.514;2023-03-08T01:54:49;19.00;44.60
12977;DHT22;6553;48.412;9.514;2023-03-08T01:57:25;19.10;44.70
12977;DHT22;6553;48.412;9.514;2023-03-08T01:59:57;19.10;44.70
12977;DHT22;6553;48.412;9.514;2023-03-08T02:03:09;19.10;44.60
12977;DHT22;6553;48.412;9.514;2023-03-08T02:05:39;19.10;44.70
12977;DHT22;6553;48.412;9.514;2023-03-08T02:08:13;19.00;44.50
12977;DHT22;6553;48.412;9.514;2023-03-08T02:10:41;19.00;44.50
12977;DHT22;6553;48.412;9.514;2023-03-08T02:13:09;19.10;44.70
12977;DHT22;6553;48.412;9.514;2023-03-08T02:15:39;19.00;44.60
12977;DHT22;6553;48.412;9.514;2023-03-08T02:18:05;19.10;44.70
12977;DHT22;6553;48.412;9.514;2023-03-08T02:20:33;19.00;44.60
12977;DHT22;6553;48.412;9.514;2023-03-08T02:23:18;19.00;44.60
12977;DHT22;6553;48.412;9.514;2023-03-08T02:25:57;19.00;44.50
12977;DHT22;6553;48.412;9.514;2023-03-08T02:28:26;19.00;44.60
12977;DHT22;6553;48.412;9.514;2023-03-08T02:30:54;19.10;44.60
12977;DHT22;6553;48.412;9.514;2023-03-08T02:33:20;19.00;44.50
12977;DHT22;6553;48.412;9.514;2023-03-08T02:35:48;19.00;44.50
12977;DHT22;6553;48.412;9.514;2023-03-08T02:38:16;19.10;44.60
12977;DHT22;6553;48.412;9.514;2023-03-08T02:40:44;19.10;44.60
12977;DHT22;6553;48.412;9.514;2023-03-08T02:43:10;19.10;44.60
12977;DHT22;6553;48.412;9.514;2023-03-08T02:45:38;19.00;44.60
12977;DHT22;6553;48.412;9.514;2023-03-08T02:48:06;19.00;44.50
12977;DHT22;6553;48.412;9.514;2023-03-08T02:50:33;19.10;44.70
12977;DHT22;6553;48.412;9.514;2023-03-08T02:53:01;19.00;44.50
12977;DHT22;6553;48.412;9.514;2023-03-08T02:55:28;19.10;44.70
12977;DHT22;6553;48.412;9.514;2023-03-08T02:57:54;19.10;44.60
12977;DHT22;6553;48.412;9.514;2023-03-08T03:00:20;19.10;44.60
12977;DHT22;6553;48.412;9.514;2023-03-08T03:02:46;19.00;44.50
12977;DHT22;6553;48.412;9.514;2023-03-08T03:05:13;19.00;44.50
12977;DHT22;6553;48.412;9.514;2023-03-08T03:07:42;19.10;44.60
12977;DHT22;6553;48.412;9.514;2023-03-08T03:10:13;19.10;44.60
12977;DHT22;6553;48.412;9.514;2023-03-08T03:12:40;19.10;44.60
12977;DHT22;6553;48.412;9.514;2023-03-08T03:15:10;19.10;44.60
12977;DHT22;6553;48.412;9.514;2023-03-08T03:17:38;19.10;44.60
12977;DHT22;6553;48.412;9.514;2023-03-08T03:20:05;19.10;45.20
12977;DHT22;6553;48.412;9.514;2023-03-08T03:22:34;19.10;44.60
12977;DHT22;6553;48.412;9.514;2023-03-08T03:25:01;19.10;44.60
12977;DHT22;6553;48.412;9.514;2023-03-08T03:27:27;19.10;44.60
12977;DHT22;6553;48.412;9.514;2023-03-08T03:29:54;19.00;44.50
12977;DHT22;6553;48.412;9.514;2023-03-08T03:32:20;19.10;44.60
12977;DHT22;6553;48.412;9.514;2023-03-08T03:34:46;19.10;44.60
12977;DHT22;6553;48.412;9.514;2023-03-08T03:37:14;19.10;44.60
12977;DHT22;6553;48.412;9.514;2023-03-08T03:39:40;19.10;44.60
12977;DHT22;6553;48.412;9.514;2023-03-08T03:42:09;19.10;44.60
12977;DHT22;6553;48.412;9.514;2023-03-08T03:44:39;19.10;44.60
12977;DHT22;6553;48.412;9.514;2023-03-08T03:47:08;19.10;44.60
12977;DHT22;6553;48.412;9.514;2023-03-08T03:49:34;19.10;44.70
12977;DHT22;6553;48.412;9.514;2023-03-08T03:52:00;19.10;44.60
12977;DHT22;6553;48.412;9.514;2023-03-08T03:54:34;19.10;44.60
12977;DHT22;6553;48.412;9.514;2023-03-08T03:57:01;19.10;44.60
12977;DHT22;6553;48.412;9.514;2023-03-08T03:59:31;19.10;44.60
12977;DHT22;6553;48.412;9.514;2023-03-08T04:01:58;19.10;44.60
12977;DHT22;6553;48.412;9.514;2023-03-08T04:04:32;19.10;44.60
12977;DHT22;6553;48.412;9.514;2023-03-08T04:06:58;19.10;44.60
12977;DHT22;6553;48.412;9.514;2023-03-08T04:09:29;19.10;44.60
12977;DHT22;6553;48.412;9.514;2023-03-08T04:12:05;19.10;45.20
12977;DHT22;6553;48.412;9.514;2023-03-08T04:14:32;19.10;44.60
12977;DHT22;6553;48.412;9.514;2023-03-08T04:16:58;19.10;44.60
12977;DHT22;6553;48.412;9.514;2023-03-08T04:19:30;19.10;44.60
12977;DHT22;6553;48.412;9.514;2023-03-08T04:21:57;19.10;44.60
12977;DHT22;6553;48.412;9.514;2023-03-08T04:24:29;19.10;44.60
12977;DHT22;6553;48.412;9.514;2023-03-08T04:27:00;19.10;44.70
12977;DHT22;6553;48.412;9.514;2023-03-08T04:29:27;19.10;44.70
12977;DHT22;6553;48.412;9.514;2023-03-08T04:31:53;19.10;44.60
12977;DHT22;6553;48.412;9.514;2023-03-08T04:34:25;19.10;44.70
12977;DHT22;6553;48.412;9.514;2023-03-08T04:36:52;19.10;44.60
12977;DHT22;6553;48.412;9.514;2023-03-08T04:39:19;19.10;44.60
12977;DHT22;6553;48.412;9.514;2023-03-08T04:41:45;19.10;44.60
12977;DHT22;6553;48.412;9.514;2023-03-08T04:44:23;19.10;44.70
12977;DHT22;6553;48.412;9.514;2023-03-08T04:46:51;19.10;44.60
12977;DHT22;6553;48.412;9.514;2023-03-08T04:49:25;19.10;44.60
12977;DHT22;6553;48.412;9.514;2023-03-08T04:51:56;19.10;44.70
12977;DHT22;6553;48.412;9.514;2023-03-08T04:54:22;19.10;44.70
12977;DHT22;6553;48.412;9.514;2023-03-08T04:56:54;19.10;44.70
12977;DHT22;6553;48.412;9.514;2023-03-08T04:59:23;19.10;44.70
12977;DHT22;6553;48.412;9.514;2023-03-08T05:01:51;19.10;44.70
12977;DHT22;6553;48.412;9.514;2023-03-08T05:04:17;19.10;44.70
12977;DHT22;6553;48.412;9.514;2023-03-08T05:06:43;19.10;44.70
12977;DHT22;6553;48.412;9.514;2023-03-08T05:09:13;19.10;45.40
12977;DHT22;6553;48.412;9.514;2023-03-08T05:11:41;19.10;44.70
12977;DHT22;6553;48.412;9.514;2023-03-08T05:14:08;19.10;44.70
12977;DHT22;6553;48.412;9.514;2023-03-08T05:16:34;19.10;44.70
12977;DHT22;6553;48.412;9.514;2023-03-08T05:19:01;19.10;44.70
12977;DHT22;6553;48.412;9.514;2023-03-08T05:21:33;19.10;44.70
12977;DHT22;6553;48.412;9.514;2023-03-08T05:24:00;19.10;44.70
12977;DHT22;6553;48.412;9.514;2023-03-08T05:26:30;19.10;44.70
12977;DHT22;6553;48.412;9.514;2023-03-08T05:28:59;19.10;44.70
12977;DHT22;6553;48.412;9.514;2023-03-08T05:31:27;19.10;44.70
12977;DHT22;6553;48.412;9.514;2023-03-08T05:33:55;19.10;44.70
12977;DHT22;6553;48.412;9.514;2023-03-08T05:36:28;19.10;44.70
12977;DHT22;6553;48.412;9.514;2023-03-08T05:38:56;19.10;44.70
12977;DHT22;6553;48.412;9.514;2023-03-08T05:41:27;19.10;44.70
12977;DHT22;6553;48.412;9.514;2023-03-08T05:43:55;19.10;44.70
12977;DHT22;6553;48.412;9.514;2023-03-08T05:46:24;19.10;44.70
12977;DHT22;6553;48.412;9.514;2023-03-08T05:48:51;19.10;44.80
12977;DHT22;6553;48.412;9.514;2023-03-08T05:51:18;19.20;45.00
12977;DHT22;6553;48.412;9.514;2023-03-08T05:53:45;19.10;44.70
12977;DHT22;6553;48.412;9.514;2023-03-08T05:56:18;19.10;44.70
12977;DHT22;6553;48.412;9.514;2023-03-08T05:58:54;19.20;44.80
12977;DHT22;6553;48.412;9.514;2023-03-08T06:01:23;19.20;44.80
12977;DHT22;6553;48.412;9.514;2023-03-08T06:03:56;19.10;44.70
12977;DHT22;6553;48.412;9.514;2023-03-08T06:06:26;19.10;44.70
12977;DHT22;6553;48.412;9.514;2023-03-08T06:08:56;19.10;44.80
12977;DHT22;6553;48.412;9.514;2023-03-08T06:11:23;19.10;44.80
12977;DHT22;6553;48.412;9.514;2023-03-08T06:13:51;19.10;44.80
12977;DHT22;6553;48.412;9.514;2023-03-08T06:16:18;19.10;44.80
12977;DHT22;6553;48.412;9.514;2023-03-08T06:18:43;19.20;44.90
12977;DHT22;6553;48.412;9.514;2023-03-08T06:21:17;19.20;44.90
12977;DHT22;6553;48.412;9.514;2023-03-08T06:23:55;19.10;44.80
12977;DHT22;6553;48.412;9.514;2023-03-08T06:26:22;19.20;44.90
12977;DHT22;6553;48.412;9.514;2023-03-08T06:28:48;19.20;44.90
12977;DHT22;6553;48.412;9.514;2023-03-08T06:31:16;19.20;44.80
12977;DHT22;6553;48.412;9.514;2023-03-08T06:33:43;19.10;44.80
12977;DHT22;6553;48.412;9.514;2023-03-08T06:36:18;19.20;44.90
12977;DHT22;6553;48.412;9.514;2023-03-08T06:38:48;19.20;44.90
12977;DHT22;6553;48.412;9.514;2023-03-08T06:41:16;19.20;44.90
12977;DHT22;6553;48.412;9.514;2023-03-08T06:43:47;19.20;44.90
12977;DHT22;6553;48.412;9.514;2023-03-08T06:46:15;19.10;44.80
12977;DHT22;6553;48.412;9.514;2023-03-08T06:48:42;19.20;44.90
12977;DHT22;6553;48.412;9.514;2023-03-08T06:51:10;19.10;44.80
12977;DHT22;6553;48.412;9.514;2023-03-08T06:53:38;19.20;44.90
12977;DHT22;6553;48.412;9.514;2023-03-08T06:56:07;19.20;44.90
12977;DHT22;6553;48.412;9.514;2023-03-08T06:58:36;19.20;44.90
12977;DHT22;6553;48.412;9.514;2023-03-08T07:01:03;19.20;44.90
12977;DHT22;6553;48.412;9.514;2023-03-08T07:03:30;19.20;44.90
12977;DHT22;6553;48.412;9.514;2023-03-08T07:06:01;19.20;44.90
12977;DHT22;6553;48.412;9.514;2023-03-08T07:08:29;19.20;44.80
12977;DHT22;6553;48.412;9.514;2023-03-08T07:10:55;19.20;45.50
12977;DHT22;6553;48.412;9.514;2023-03-08T07:13:23;19.20;44.80
12977;DHT22;6553;48.412;9.514;2023-03-08T07:15:52;19.20;44.90
12977;DHT22;6553;48.412;9.514;2023-03-08T07:18:18;19.20;44.90
12977;DHT22;6553;48.412;9.514;2023-03-08T07:20:44;19.20;44.90
12977;DHT22;6553;48.412;9.514;2023-03-08T07:23:10;19.20;44.90
12977;DHT22;6553;48.412;9.514;2023-03-08T07:25:39;19.20;44.90
12977;DHT22;6553;48.412;9.514;2023-03-08T07:28:05;19.20;44.90
12977;DHT22;6553;48.412;9.514;2023-03-08T07:30:31;19.20;44.90
12977;DHT22;6553;48.412;9.514;2023-03-08T07:32:57;19.20;45.00
12977;DHT22;6553;48.412;9.514;2023-03-08T07:35:23;19.20;45.00
12977;DHT22;6553;48.412;9.514;2023-03-08T07:37:49;19.20;45.00
12977;DHT22;6553;48.412;9.514;2023-03-08T07:40:15;19.20;45.00
12977;DHT22;6553;48.412;9.514;2023-03-08T07:42:42;19.20;45.00
12977;DHT22;6553;48.412;9.514;2023-03-08T07:45:25;19.20;45.00
12977;DHT22;6553;48.412;9.514;2023-03-08T07:47:51;19.30;45.00
12977;DHT22;6553;48.412;9.514;2023-03-08T07:50:18;19.30;45.00
12977;DHT22;6553;48.412;9.514;2023-03-08T07:52:45;19.30;45.10
12977;DHT22;6553;48.412;9.514;2023-03-08T07:55:11;19.30;45.00
12977;DHT22;6553;48.412;9.514;2023-03-08T07:57:37;19.30;45.00
12977;DHT22;6553;48.412;9.514;2023-03-08T08:00:04;19.30;45.10
12977;DHT22;6553;48.412;9.514;2023-03-08T08:02:38;19.30;45.00
12977;DHT22;6553;48.412;9.514;2023-03-08T08:05:04;19.30;45.10
12977;DHT22;6553;48.412;9.514;2023-03-08T08:07:30;19.30;45.00
12977;DHT22;6553;48.412;9.514;2023-03-08T08:09:56;19.30;45.00
12977;DHT22;6553;48.412;9.514;2023-03-08T08:12:22;19.30;45.00
12977;DHT22;6553;48.412;9.514;2023-03-08T08:14:51;19.30;45.00
12977;DHT22;6553;48.412;9.514;2023-03-08T08:17:18;19.30;45.00
12977;DHT22;6553;48.412;9.514;2023-03-08T08:19:45;19.30;45.00
12977;DHT22;6553;48.412;9.514;2023-03-08T08:22:11;19.30;45.00
12977;DHT22;6553;48.412;9.514;2023-03-08T08:24:37;19.30;45.10
12977;DHT22;6553;48.412;9.514;2023-03-08T08:27:03;19.30;45.10
12977;DHT22;6553;48.412;9.514;2023-03-08T08:29:29;19.30;45.20
12977;DHT22;6553;48.412;9.514;2023-03-08T08:31:55;19.30;45.10
12977;DHT22;6553;48.412;9.514;2023-03-08T08:34:21;19.30;45.10
12977;DHT22;6553;48.412;9.514;2023-03-08T08:36:47;19.30;45.20
12977;DHT22;6553;48.412;9.514;2023-03-08T08:39:13;19.30;45.00
12977;DHT22;6553;48.412;9.514;2023-03-08T08:41:39;19.30;45.00
12977;DHT22;6553;48.412;9.514;2023-03-08T08:44:05;19.40;45.10
12977;DHT22;6553;48.412;9.514;2023-03-08T08:46:31;19.30;45.10
12977;DHT22;6553;48.412;9.514;2023-03-08T08:48:59;19.40;45.10
12977;DHT22;6553;48.412;9.514;2023-03-08T08:51:25;19.30;45.10
12977;DHT22;6553;48.412;9.514;2023-03-08T08:53:52;19.30;45.10
12977;DHT22;6553;48.412;9.514;2023-03-08T08:56:20;19.30;45.10
12977;DHT22;6553;48.412;9.514;2023-03-08T08:58:49;19.40;45.20
12977;DHT22;6553;48.412;9.514;2023-03-08T09:01:17;19.40;45.20
12977;DHT22;6553;48.412;9.514;2023-03-08T09:03:45;19.40;45.10
12977;DHT22;6553;48.412;9.514;2023-03-08T09:06:13;19.40;45.20
12977;DHT22;6553;48.412;9.514;2023-03-08T09:08:41;19.40;45.10
12977;DHT22;6553;48.412;9.514;2023-03-08T09:11:08;19.40;45.20
12977;DHT22;6553;48.412;9.514;2023-03-08T09:13:36;19.40;45.20
12977;DHT22;6553;48.412;9.514;2023-03-08T09:18:53;19.40;45.20
12977;DHT22;6553;48.412;9.514;2023-03-08T09:21:23;19.40;45.10
12977;DHT22;6553;48.412;9.514;2023-03-08T09:23:49;19.50;45.80
12977;DHT22;6553;48.412;9.514;2023-03-08T09:26:16;19.50;45.20
12977;DHT22;6553;48.412;9.514;2023-03-08T09:28:43;19.50;45.20
12977;DHT22;6553;48.412;9.514;2023-03-08T09:31:12;19.50;45.20
12977;DHT22;6553;48.412;9.514;2023-03-08T09:33:45;19.50;45.30
12977;DHT22;6553;48.412;9.514;2023-03-08T09:36:13;19.50;45.30
12977;DHT22;6553;48.412;9.514;2023-03-08T09:38:40;19.50;45.30
12977;DHT22;6553;48.412;9.514;2023-03-08T09:44:12;19.50;45.40
12977;DHT22;6553;48.412;9.514;2023-03-08T09:49:40;19.50;45.40
12977;DHT22;6553;48.412;9.514;2023-03-08T09:52:27;19.50;45.40
12977;DHT22;6553;48.412;9.514;2023-03-08T09:55:01;19.50;45.40
12977;DHT22;6553;48.412;9.514;2023-03-08T09:57:33;19.50;45.40
12977;DHT22;6553;48.412;9.514;2023-03-08T10:00:05;19.50;45.50
12977;DHT22;6553;48.412;9.514;2023-03-08T10:05:48;19.50;45.50
12977;DHT22;6553;48.412;9.514;2023-03-08T10:08:26;19.50;45.50
12977;DHT22;6553;48.412;9.514;2023-03-08T10:11:00;19.50;45.50
12977;DHT22;6553;48.412;9.514;2023-03-08T10:13:41;19.50;45.50
12977;DHT22;6553;48.412;9.514;2023-03-08T10:16:26;19.60;45.60
12977;DHT22;6553;48.412;9.514;2023-03-08T10:21:40;19.50;45.50
12977;DHT22;6553;48.412;9.514;2023-03-08T10:24:20;19.50;45.60
12977;DHT22;6553;48.412;9.514;2023-03-08T10:27:01;19.50;45.60
12977;DHT22;6553;48.412;9.514;2023-03-08T10:29:34;19.50;45.60
12977;DHT22;6553;48.412;9.514;2023-03-08T10:31:59;19.50;45.60
12977;DHT22;6553;48.412;9.514;2023-03-08T10:34:29;19.50;45.60
12977;DHT22;6553;48.412;9.514;2023-03-08T10:37:02;19.50;45.60
12977;DHT22;6553;48.412;9.514;2023-03-08T10:39:31;19.60;45.70
12977;DHT22;6553;48.412;9.514;2023-03-08T10:41:59;19.50;45.70
12977;DHT22;6553;48.412;9.514;2023-03-08T10:44:53;19.50;45.70
12977;DHT22;6553;48.412;9.514;2023-03-08T10:47:59;19.50;45.80
12977;DHT22;6553;48.412;9.514;2023-03-08T10:50:31;19.50;45.80
12977;DHT22;6553;48.412;9.514;2023-03-08T10:53:18;19.50;45.80
12977;DHT22;6553;48.412;9.514;2023-03-08T10:55:47;19.50;45.80
12977;DHT22;6553;48.412;9.514;2023-03-08T11:06:29;19.50;46.00
12977;DHT22;6553;48.412;9.514;2023-03-08T11:09:00;19.50;45.90
12977;DHT22;6553;48.412;9.514;2023-03-08T11:11:39;19.50;46.00
12977;DHT22;6553;48.412;9.514;2023-03-08T11:14:10;19.60;46.10
12977;DHT22;6553;48.412;9.514;2023-03-08T11:17:04;19.50;46.00
12977;DHT22;6553;48.412;9.514;2023-03-08T11:19:59;19.60;46.20
12977;DHT22;6553;48.412;9.514;2023-03-08T11:23:03;19.60;46.20
12977;DHT22;6553;48.412;9.514;2023-03-08T11:28:43;19.60;46.20
12977;DHT22;6553;48.412;9.514;2023-03-08T11:36:35;19.60;46.20
12977;DHT22;6553;48.412;9.514;2023-03-08T11:39:29;19.60;46.20
12977;DHT22;6553;48.412;9.514;2023-03-08T11:42:16;19.60;46.20
12977;DHT22;6553;48.412;9.514;2023-03-08T11:54:10;19.70;46.20
12977;DHT22;6553;48.412;9.514;2023-03-08T11:57:06;19.70;46.30
12977;DHT22;6553;48.412;9.514;2023-03-08T11:59:50;19.70;46.30
12977;DHT22;6553;48.412;9.514;2023-03-08T12:02:34;19.70;46.30
12977;DHT22;6553;48.412;9.514;2023-03-08T12:08:04;19.70;46.20
12977;DHT22;6553;48.412;9.514;2023-03-08T12:11:03;19.70;46.20
12977;DHT22;6553;48.412;9.514;2023-03-08T12:13:38;19.70;46.20
12977;DHT22;6553;48.412;9.514;2023-03-08T12:16:55;19.70;46.30
12977;DHT22;6553;48.412;9.514;2023-03-08T12:19:42;19.70;46.30
12977;DHT22;6553;48.412;9.514;2023-03-08T12:25:02;19.60;46.30
12977;DHT22;6553;48.412;9.514;2023-03-08T12:27:44;19.70;46.40
12977;DHT22;6553;48.412;9.514;2023-03-08T12:30:36;19.70;46.40
12977;DHT22;6553;48.412;9.514;2023-03-08T12:33:04;19.70;46.50
12977;DHT22;6553;48.412;9.514;2023-03-08T12:35:36;19.70;46.50
12977;DHT22;6553;48.412;9.514;2023-03-08T12:40:44;19.70;46.60
12977;DHT22;6553;48.412;9.514;2023-03-08T12:43:26;19.60;46.50
12977;DHT22;6553;48.412;9.514;2023-03-08T12:46:08;19.60;46.60
12977;DHT22;6553;48.412;9.514;2023-03-08T12:48:47;19.70;46.70
12977;DHT22;6553;48.412;9.514;2023-03-08T12:56:49;19.70;46.70
12977;DHT22;6553;48.412;9.514;2023-03-08T13:01:44;19.70;46.80
12977;DHT22;6553;48.412;9.514;2023-03-08T13:07:19;19.70;46.70
12977;DHT22;6553;48.412;9.514;2023-03-08T13:10:06;19.70;46.80
12977;DHT22;6553;48.412;9.514;2023-03-08T13:13:02;19.70;46.80
12977;DHT22;6553;48.412;9.514;2023-03-08T13:15:36;19.70;46.80
12977;DHT22;6553;48.412;9.514;2023-03-08T13:18:14;19.70;46.80
12977;DHT22;6553;48.412;9.514;2023-03-08T13:20:59;19.70;46.90
12977;DHT22;6553;48.412;9.514;2023-03-08T13:23:40;19.70;46.80
12977;DHT22;6553;48.412;9.514;2023-03-08T13:29:18;19.70;46.90
12977;DHT22;6553;48.412;9.514;2023-03-08T13:31:45;19.70;46.90
12977;DHT22;6553;48.412;9.514;2023-03-08T13:34:28;19.70;47.00
12977;DHT22;6553;48.412;9.514;2023-03-08T13:36:55;19.70;47.00
12977;DHT22;6553;48.412;9.514;2023-03-08T13:39:24;19.70;46.90
12977;DHT22;6553;48.412;9.514;2023-03-08T13:41:52;19.70;47.00
12977;DHT22;6553;48.412;9.514;2023-03-08T13:44:30;19.70;47.00
12977;DHT22;6553;48.412;9.514;2023-03-08T13:47:02;19.70;47.60
12977;DHT22;6553;48.412;9.514;2023-03-08T13:49:42;19.70;47.00
12977;DHT22;6553;48.412;9.514;2023-03-08T13:52:17;19.70;47.00
12977;DHT22;6553;48.412;9.514;2023-03-08T13:54:50;19.70;47.00
12977;DHT22;6553;48.412;9.514;2023-03-08T13:57:38;19.70;47.10
12977;DHT22;6553;48.412;9.514;2023-03-08T14:02:52;19.70;47.10
12977;DHT22;6553;48.412;9.514;2023-03-08T14:05:24;19.70;47.20
12977;DHT22;6553;48.412;9.514;2023-03-08T14:08:03;19.70;47.20
12977;DHT22;6553;48.412;9.514;2023-03-08T14:10:47;19.70;47.70
12977;DHT22;6553;48.412;9.514;2023-03-08T14:13:22;19.70;47.20
12977;DHT22;6553;48.412;9.514;2023-03-08T14:15:59;19.70;47.20
12977;DHT22;6553;48.412;9.514;2023-03-08T14:18:40;19.70;47.20
12977;DHT22;6553;48.412;9.514;2023-03-08T14:21:23;19.70;47.30
12977;DHT22;6553;48.412;9.514;2023-03-08T14:23:59;19.70;47.20
12977;DHT22;6553;48.412;9.514;2023-03-08T14:26:38;19.70;47.30
12977;DHT22;6553;48.412;9.514;2023-03-08T14:32:04;19.70;47.30
12977;DHT22;6553;48.412;9.514;2023-03-08T14:34:49;19.70;47.30
12977;DHT22;6553;48.412;9.514;2023-03-08T14:37:27;19.70;47.30
12977;DHT22;6553;48.412;9.514;2023-03-08T14:42:51;19.70;47.40
12977;DHT22;6553;48.412;9.514;2023-03-08T14:45:34;19.70;47.40
12977;DHT22;6553;48.412;9.514;2023-03-08T14:50:56;19.70;47.40
12977;DHT22;6553;48.412;9.514;2023-03-08T14:53:28;19.70;47.50
12977;DHT22;6553;48.412;9.514;2023-03-08T14:55:58;19.70;47.50
12977;DHT22;6553;48.412;9.514;2023-03-08T14:58:37;19.70;47.50
12977;DHT22;6553;48.412;9.514;2023-03-08T15:01:05;19.70;47.50
12977;DHT22;6553;48.412;9.514;2023-03-08T15:03:31;19.70;47.60
12977;DHT22;6553;48.412;9.514;2023-03-08T15:05:58;19.70;47.60
12977;DHT22;6553;48.412;9.514;2023-03-08T15:08:29;19.70;47.50
12977;DHT22;6553;48.412;9.514;2023-03-08T15:10:55;19.70;47.60
12977;DHT22;6553;48.412;9.514;2023-03-08T15:13:22;19.80;47.60
12977;DHT22;6553;48.412;9.514;2023-03-08T15:15:49;19.80;47.60
12977;DHT22;6553;48.412;9.514;2023-03-08T15:18:15;19.80;47.60
12977;DHT22;6553;48.412;9.514;2023-03-08T15:20:44;19.70;47.60
12977;DHT22;6553;48.412;9.514;2023-03-08T15:23:25;19.80;47.70
12977;DHT22;6553;48.412;9.514;2023-03-08T15:25:54;19.70;47.60
12977;DHT22;6553;48.412;9.514;2023-03-08T15:28:22;19.80;47.70
12977;DHT22;6553;48.412;9.514;2023-03-08T15:30:49;19.80;47.70
12977;DHT22;6553;48.412;9.514;2023-03-08T15:33:22;19.70;47.70
12977;DHT22;6553;48.412;9.514;2023-03-08T15:35:49;19.80;47.80
12977;DHT22;6553;48.412;9.514;2023-03-08T15:38:16;19.80;47.80
12977;DHT22;6553;48.412;9.514;2023-03-08T15:40:43;19.70;47.80
12977;DHT22;6553;48.412;9.514;2023-03-08T15:43:10;19.70;47.70
12977;DHT22;6553;48.412;9.514;2023-03-08T15:45:36;19.70;47.80
12977;DHT22;6553;48.412;9.514;2023-03-08T15:48:03;19.80;47.80
12977;DHT22;6553;48.412;9.514;2023-03-08T15:50:32;19.80;47.90
12977;DHT22;6553;48.412;9.514;2023-03-08T15:52:59;19.80;47.90
12977;DHT22;6553;48.412;9.514;2023-03-08T15:55:27;19.80;47.90
12977;DHT22;6553;48.412;9.514;2023-03-08T15:57:54;19.70;47.90
12977;DHT22;6553;48.412;9.514;2023-03-08T16:00:21;19.80;48.00
12977;DHT22;6553;48.412;9.514;2023-03-08T16:02:48;19.80;48.00
12977;DHT22;6553;48.412;9.514;2023-03-08T16:05:16;19.80;48.00
12977;DHT22;6553;48.412;9.514;2023-03-08T16:07:44;19.80;47.90
12977;DHT22;6553;48.412;9.514;2023-03-08T16:10:12;19.80;48.00
12977;DHT22;6553;48.412;9.514;2023-03-08T16:12:39;19.80;48.00
12977;DHT22;6553;48.412;9.514;2023-03-08T16:15:06;19.80;47.90
12977;DHT22;6553;48.412;9.514;2023-03-08T16:17:32;19.70;47.90
12977;DHT22;6553;48.412;9.514;2023-03-08T16:19:58;19.80;48.00
12977;DHT22;6553;48.412;9.514;2023-03-08T16:22:24;19.70;47.90
12977;DHT22;6553;48.412;9.514;2023-03-08T16:24:50;19.80;48.00
12977;DHT22;6553;48.412;9.514;2023-03-08T16:27:15;19.80;48.00
12977;DHT22;6553;48.412;9.514;2023-03-08T16:29:41;19.80;48.10
12977;DHT22;6553;48.412;9.514;2023-03-08T16:32:08;19.80;48.10
12977;DHT22;6553;48.412;9.514;2023-03-08T16:34:37;19.80;48.00
12977;DHT22;6553;48.412;9.514;2023-03-08T16:37:03;19.80;48.10
12977;DHT22;6553;48.412;9.514;2023-03-08T16:39:29;19.70;48.10
12977;DHT22;6553;48.412;9.514;2023-03-08T16:41:55;19.80;48.20
12977;DHT22;6553;48.412;9.514;2023-03-08T16:44:23;19.80;48.20
12977;DHT22;6553;48.412;9.514;2023-03-08T16:46:53;19.80;48.20
12977;DHT22;6553;48.412;9.514;2023-03-08T16:49:20;19.80;48.20
12977;DHT22;6553;48.412;9.514;2023-03-08T16:51:53;19.80;48.20
12977;DHT22;6553;48.412;9.514;2023-03-08T16:54:20;19.80;48.20
12977;DHT22;6553;48.412;9.514;2023-03-08T16:56:45;19.80;48.20
12977;DHT22;6553;48.412;9.514;2023-03-08T16:59:13;19.80;48.20
12977;DHT22;6553;48.412;9.514;2023-03-08T17:01:40;19.80;48.30
12977;DHT22;6553;48.412;9.514;2023-03-08T17:04:10;19.80;48.30
12977;DHT22;6553;48.412;9.514;2023-03-08T17:06:36;19.80;48.20
12977;DHT22;6553;48.412;9.514;2023-03-08T17:09:03;19.80;48.30
12977;DHT22;6553;48.412;9.514;2023-03-08T17:11:31;19.80;48.30
12977;DHT22;6553;48.412;9.514;2023-03-08T17:14:01;19.80;48.20
12977;DHT22;6553;48.412;9.514;2023-03-08T17:16:29;19.80;48.30
12977;DHT22;6553;48.412;9.514;2023-03-08T17:19:01;19.80;48.40
12977;DHT22;6553;48.412;9.514;2023-03-08T17:21:28;19.80;48.40
12977;DHT22;6553;48.412;9.514;2023-03-08T17:23:57;19.80;48.40